sensor_id;sensor_type;location;lat;lon;timestamp;pressure;altitude;pressure_sealevel;temperature;humidity
10466;BME280;5280;42.600;23.556;2023-12-04T00:00:28;93863.81;;;-0.49;100.00
10466;BME280;5280;42.600;23.556;2023-12-04T00:02:55;93852.66;;;-0.52;100.00
10466;BME280;5280;42.600;23.556;2023-12-04T00:05:25;93854.44;;;-0.54;100.00
10466;BME280;5280;42.600;23.556;2023-12-04T00:07:53;93864.94;;;-0.57;100.00
10466;BME280;5280;42.600;23.556;2023-12-04T00:10:20;93870.84;;;-0.52;100.00
10466;BME280;5280;42.600;23.556;2023-12-04T00:12:47;93877.47;;;-0.42;100.00
10466;BME280;5280;42.600;23.556;2023-12-04T00:15:16;93824.03;;;-0.78;100.00
10466;BME280;5280;42.600;23.556;2023-12-04T00:17:43;93825.75;;;-0.77;100.00
10466;BME280;5280;42.600;23.556;2023-12-04T00:20:10;93862.44;;;-0.60;100.00
10466;BME280;5280;42.600;23.556;2023-12-04T00:22:37;93846.53;;;-0.79;100.00
10466;BME280;5280;42.600;23.556;2023-12-04T00:25:06;93783.53;;;-1.12;100.00
10466;BME280;5280;42.600;23.556;2023-12-04T00:27:34;93876.91;;;-0.53;100.00
10466;BME280;5280;42.600;23.556;2023-12-04T00:30:01;93774.75;;;-1.08;100.00
10466;BME280;5280;42.600;23.556;2023-12-04T00:32:30;93860.88;;;-0.66;100.00
10466;BME280;5280;42.600;23.556;2023-12-04T00:34:57;93857.88;;;-0.81;100.00
10466;BME280;5280;42.600;23.556;2023-12-04T00:37:26;93835.81;;;-0.96;100.00
10466;BME280;5280;42.600;23.556;2023-12-04T00:39:53;93886.75;;;-0.64;100.00
10466;BME280;5280;42.600;23.556;2023-12-04T00:42:20;93818.63;;;-1.00;100.00
10466;BME280;5280;42.600;23.556;2023-12-04T00:44:47;93867.28;;;-0.79;100.00
10466;BME280;5280;42.600;23.556;2023-12-04T00:47:14;93865.81;;;-0.88;100.00
10466;BME280;5280;42.600;23.556;2023-12-04T00:49:42;93883.56;;;-0.74;100.00
10466;BME280;5280;42.600;23.556;2023-12-04T00:52:09;93892.91;;;-0.67;100.00
10466;BME280;5280;42.600;23.556;2023-12-04T00:54:38;93903.25;;;-0.65;100.00
10466;BME280;5280;42.600;23.556;2023-12-04T00:57:05;93900.84;;;-0.73;100.00
10466;BME280;5280;42.600;23.556;2023-12-04T00:59:32;93894.81;;;-0.73;100.00
10466;BME280;5280;42.600;23.556;2023-12-04T01:02:00;93899.84;;;-0.67;100.00
10466;BME280;5280;42.600;23.556;2023-12-04T01:04:27;93899.94;;;-0.70;100.00
10466;BME280;5280;42.600;23.556;2023-12-04T01:06:55;93821.94;;;-1.26;100.00
10466;BME280;5280;42.600;23.556;2023-12-04T01:09:24;93871.31;;;-0.98;100.00
10466;BME280;5280;42.600;23.556;2023-12-04T01:11:51;93887.63;;;-0.95;100.00
10466;BME280;5280;42.600;23.556;2023-12-04T01:14:19;93854.56;;;-1.19;100.00
10466;BME280;5280;42.600;23.556;2023-12-04T01:16:46;93913.97;;;-0.77;100.00
10466;BME280;5280;42.600;23.556;2023-12-04T01:19:13;93907.84;;;-0.75;100.00
10466;BME280;5280;42.600;23.556;2023-12-04T01:21:40;93907.78;;;-0.73;100.00
10466;BME280;5280;42.600;23.556;2023-12-04T01:24:08;93906.31;;;-0.82;100.00
10466;BME280;5280;42.600;23.556;2023-12-04T01:26:35;93905.34;;;-0.79;100.00
10466;BME280;5280;42.600;23.556;2023-12-04T01:29:03;93915.81;;;-0.82;100.00
10466;BME280;5280;42.600;23.556;2023-12-04T01:31:30;93901.31;;;-0.90;100.00
10466;BME280;5280;42.600;23.556;2023-12-04T01:33:57;93920.25;;;-0.86;100.00
10466;BME280;5280;42.600;23.556;2023-12-04T01:36:26;93922.78;;;-0.84;100.00
10466;BME280;5280;42.600;23.556;2023-12-04T01:38:53;93904.81;;;-0.91;100.00
10466;BME280;5280;42.600;23.556;2023-12-04T01:41:21;93918.44;;;-0.84;100.00
10466;BME280;5280;42.600;23.556;2023-12-04T01:43:56;93897.03;;;-0.91;100.00
10466;BME280;5280;42.600;23.556;2023-12-04T01:46:23;93893.88;;;-1.02;100.00
10466;BME280;5280;42.600;23.556;2023-12-04T01:48:50;93861.75;;;-1.28;100.00
10466;BME280;5280;42.600;23.556;2023-12-04T01:51:18;93923.13;;;-0.97;100.00
10466;BME280;5280;42.600;23.556;2023-12-04T01:53:46;93916.34;;;-1.01;100.00
10466;BME280;5280;42.600;23.556;2023-12-04T01:56:15;93877.38;;;-1.30;100.00
10466;BME280;5280;42.600;23.556;2023-12-04T01:58:44;93872.50;;;-1.42;100.00
10466;BME280;5280;42.600;23.556;2023-12-04T02:01:11;93924.91;;;-0.99;100.00
10466;BME280;5280;42.600;23.556;2023-12-04T02:03:40;93871.63;;;-1.43;100.00
10466;BME280;5280;42.600;23.556;2023-12-04T02:06:09;93922.84;;;-1.18;100.00
10466;BME280;5280;42.600;23.556;2023-12-04T02:08:36;93869.19;;;-1.49;100.00
10466;BME280;5280;42.600;23.556;2023-12-04T02:11:03;93915.13;;;-1.20;100.00
10466;BME280;5280;42.600;23.556;2023-12-04T02:13:30;93899.00;;;-1.31;100.00
10466;BME280;5280;42.600;23.556;2023-12-04T02:16:03;93883.81;;;-1.45;100.00
10466;BME280;5280;42.600;23.556;2023-12-04T02:18:32;93928.19;;;-1.24;100.00
10466;BME280;5280;42.600;23.556;2023-12-04T02:21:00;93903.50;;;-1.39;100.00
10466;BME280;5280;42.600;23.556;2023-12-04T02:23:27;93945.06;;;-1.08;100.00
10466;BME280;5280;42.600;23.556;2023-12-04T02:26:05;93945.84;;;-1.05;100.00
10466;BME280;5280;42.600;23.556;2023-12-04T02:28:36;93949.78;;;-1.24;100.00
10466;BME280;5280;42.600;23.556;2023-12-04T02:31:05;93941.13;;;-1.23;100.00
10466;BME280;5280;42.600;23.556;2023-12-04T02:33:34;93956.69;;;-1.23;100.00
10466;BME280;5280;42.600;23.556;2023-12-04T02:36:04;93939.53;;;-1.28;100.00
10466;BME280;5280;42.600;23.556;2023-12-04T02:38:32;93959.25;;;-1.21;100.00
10466;BME280;5280;42.600;23.556;2023-12-04T02:41:01;93915.72;;;-1.44;100.00
10466;BME280;5280;42.600;23.556;2023-12-04T02:43:28;93938.75;;;-1.31;100.00
10466;BME280;5280;42.600;23.556;2023-12-04T02:45:55;93948.25;;;-1.31;100.00
10466;BME280;5280;42.600;23.556;2023-12-04T02:48:25;93933.59;;;-1.34;100.00
10466;BME280;5280;42.600;23.556;2023-12-04T02:50:52;93954.06;;;-1.21;100.00
10466;BME280;5280;42.600;23.556;2023-12-04T02:53:19;93891.97;;;-1.60;100.00
10466;BME280;5280;42.600;23.556;2023-12-04T02:55:46;93935.53;;;-1.40;100.00
10466;BME280;5280;42.600;23.556;2023-12-04T02:58:14;93943.25;;;-1.39;100.00
10466;BME280;5280;42.600;23.556;2023-12-04T03:00:41;93949.97;;;-1.30;100.00
10466;BME280;5280;42.600;23.556;2023-12-04T03:03:08;93953.19;;;-1.22;100.00
10466;BME280;5280;42.600;23.556;2023-12-04T03:05:35;93922.47;;;-1.37;100.00
10466;BME280;5280;42.600;23.556;2023-12-04T03:08:02;93953.03;;;-1.16;100.00
10466;BME280;5280;42.600;23.556;2023-12-04T03:10:29;93915.06;;;-1.51;100.00
10466;BME280;5280;42.600;23.556;2023-12-04T03:12:55;93894.72;;;-1.67;100.00
10466;BME280;5280;42.600;23.556;2023-12-04T03:15:24;93965.94;;;-1.14;100.00
10466;BME280;5280;42.600;23.556;2023-12-04T03:17:54;93958.25;;;-1.17;100.00
10466;BME280;5280;42.600;23.556;2023-12-04T03:20:21;93965.28;;;-1.21;100.00
10466;BME280;5280;42.600;23.556;2023-12-04T03:22:48;93977.34;;;-1.20;100.00
10466;BME280;5280;42.600;23.556;2023-12-04T03:25:18;93966.28;;;-1.26;100.00
10466;BME280;5280;42.600;23.556;2023-12-04T03:27:45;93966.41;;;-1.31;100.00
10466;BME280;5280;42.600;23.556;2023-12-04T03:30:12;93972.31;;;-1.26;100.00
10466;BME280;5280;42.600;23.556;2023-12-04T03:32:41;93978.59;;;-1.35;100.00
10466;BME280;5280;42.600;23.556;2023-12-04T03:35:08;93888.50;;;-1.94;100.00
10466;BME280;5280;42.600;23.556;2023-12-04T03:37:36;93978.78;;;-1.44;100.00
10466;BME280;5280;42.600;23.556;2023-12-04T03:40:04;93976.19;;;-1.44;100.00
10466;BME280;5280;42.600;23.556;2023-12-04T03:42:31;93971.94;;;-1.45;100.00
10466;BME280;5280;42.600;23.556;2023-12-04T03:44:58;93955.91;;;-1.60;100.00
10466;BME280;5280;42.600;23.556;2023-12-04T03:47:25;93985.50;;;-1.35;100.00
10466;BME280;5280;42.600;23.556;2023-12-04T03:49:53;93987.47;;;-1.45;100.00
10466;BME280;5280;42.600;23.556;2023-12-04T03:52:20;93988.41;;;-1.49;100.00
10466;BME280;5280;42.600;23.556;2023-12-04T03:54:47;93930.81;;;-1.95;100.00
10466;BME280;5280;42.600;23.556;2023-12-04T03:57:13;93960.94;;;-1.91;100.00
10466;BME280;5280;42.600;23.556;2023-12-04T03:59:40;93939.56;;;-2.01;100.00
10466;BME280;5280;42.600;23.556;2023-12-04T04:02:10;93994.28;;;-1.78;100.00
10466;BME280;5280;42.600;23.556;2023-12-04T04:04:36;93902.41;;;-2.37;100.00
10466;BME280;5280;42.600;23.556;2023-12-04T04:07:05;93989.41;;;-1.90;100.00
10466;BME280;5280;42.600;23.556;2023-12-04T04:09:32;93969.94;;;-2.09;100.00
10466;BME280;5280;42.600;23.556;2023-12-04T04:11:59;93998.03;;;-1.91;100.00
10466;BME280;5280;42.600;23.556;2023-12-04T04:14:26;93976.03;;;-2.10;100.00
10466;BME280;5280;42.600;23.556;2023-12-04T04:16:53;93988.66;;;-1.96;100.00
10466;BME280;5280;42.600;23.556;2023-12-04T04:19:19;93984.66;;;-2.09;100.00
10466;BME280;5280;42.600;23.556;2023-12-04T04:21:46;94002.56;;;-2.00;100.00
10466;BME280;5280;42.600;23.556;2023-12-04T04:24:15;94012.94;;;-2.00;100.00
10466;BME280;5280;42.600;23.556;2023-12-04T04:26:42;94006.91;;;-2.01;100.00
10466;BME280;5280;42.600;23.556;2023-12-04T04:29:09;94006.03;;;-2.01;100.00
10466;BME280;5280;42.600;23.556;2023-12-04T04:31:36;93941.22;;;-2.35;100.00
10466;BME280;5280;42.600;23.556;2023-12-04T04:34:03;93976.16;;;-2.16;100.00
10466;BME280;5280;42.600;23.556;2023-12-04T04:36:29;93997.44;;;-2.03;100.00
10466;BME280;5280;42.600;23.556;2023-12-04T04:38:56;93997.66;;;-2.12;100.00
10466;BME280;5280;42.600;23.556;2023-12-04T04:41:32;93983.81;;;-2.11;100.00
10466;BME280;5280;42.600;23.556;2023-12-04T04:43:59;94004.09;;;-1.92;100.00
10466;BME280;5280;42.600;23.556;2023-12-04T04:46:26;94003.97;;;-1.86;100.00
10466;BME280;5280;42.600;23.556;2023-12-04T04:48:55;94007.66;;;-1.96;100.00
10466;BME280;5280;42.600;23.556;2023-12-04T04:51:22;94034.97;;;-1.83;100.00
10466;BME280;5280;42.600;23.556;2023-12-04T04:53:49;94001.53;;;-1.92;100.00
10466;BME280;5280;42.600;23.556;2023-12-04T04:56:19;94016.84;;;-1.83;100.00
10466;BME280;5280;42.600;23.556;2023-12-04T04:58:48;93948.78;;;-2.26;100.00
10466;BME280;5280;42.600;23.556;2023-12-04T05:01:14;93986.19;;;-2.01;100.00
10466;BME280;5280;42.600;23.556;2023-12-04T05:03:42;93998.94;;;-1.93;100.00
10466;BME280;5280;42.600;23.556;2023-12-04T05:06:09;93955.59;;;-2.22;100.00
10466;BME280;5280;42.600;23.556;2023-12-04T05:08:36;94011.75;;;-1.86;100.00
10466;BME280;5280;42.600;23.556;2023-12-04T05:11:04;94020.28;;;-1.81;100.00
10466;BME280;5280;42.600;23.556;2023-12-04T05:13:31;94005.97;;;-1.98;100.00
10466;BME280;5280;42.600;23.556;2023-12-04T05:15:59;94032.19;;;-1.74;100.00
10466;BME280;5280;42.600;23.556;2023-12-04T05:18:26;93982.09;;;-2.11;100.00
10466;BME280;5280;42.600;23.556;2023-12-04T05:20:53;94035.75;;;-1.79;100.00
10466;BME280;5280;42.600;23.556;2023-12-04T05:23:20;94010.13;;;-1.90;100.00
10466;BME280;5280;42.600;23.556;2023-12-04T05:25:47;94043.28;;;-1.68;100.00
10466;BME280;5280;42.600;23.556;2023-12-04T05:28:14;94036.56;;;-1.76;100.00
10466;BME280;5280;42.600;23.556;2023-12-04T05:30:41;94007.63;;;-1.94;100.00
10466;BME280;5280;42.600;23.556;2023-12-04T05:33:09;93993.19;;;-2.06;100.00
10466;BME280;5280;42.600;23.556;2023-12-04T05:35:36;94050.84;;;-1.59;100.00
10466;BME280;5280;42.600;23.556;2023-12-04T05:38:03;94055.31;;;-1.64;100.00
10466;BME280;5280;42.600;23.556;2023-12-04T05:40:30;94040.53;;;-1.61;100.00
10466;BME280;5280;42.600;23.556;2023-12-04T05:42:59;94050.72;;;-1.53;100.00
10466;BME280;5280;42.600;23.556;2023-12-04T05:45:25;94052.31;;;-1.46;100.00
10466;BME280;5280;42.600;23.556;2023-12-04T05:47:52;94054.16;;;-1.53;100.00
10466;BME280;5280;42.600;23.556;2023-12-04T05:50:21;94047.34;;;-1.55;100.00
10466;BME280;5280;42.600;23.556;2023-12-04T05:52:48;94048.25;;;-1.59;100.00
10466;BME280;5280;42.600;23.556;2023-12-04T05:55:15;94068.63;;;-1.43;100.00
10466;BME280;5280;42.600;23.556;2023-12-04T05:57:43;94064.56;;;-1.54;100.00
10466;BME280;5280;42.600;23.556;2023-12-04T06:00:11;94062.72;;;-1.49;100.00
10466;BME280;5280;42.600;23.556;2023-12-04T06:02:39;94070.44;;;-1.46;100.00
10466;BME280;5280;42.600;23.556;2023-12-04T06:05:06;94071.41;;;-1.50;100.00
10466;BME280;5280;42.600;23.556;2023-12-04T06:07:35;94062.81;;;-1.52;100.00
10466;BME280;5280;42.600;23.556;2023-12-04T06:10:02;94055.03;;;-1.52;100.00
10466;BME280;5280;42.600;23.556;2023-12-04T06:12:30;94072.09;;;-1.44;100.00
10466;BME280;5280;42.600;23.556;2023-12-04T06:14:57;94069.38;;;-1.38;100.00
10466;BME280;5280;42.600;23.556;2023-12-04T06:17:24;94082.31;;;-1.36;100.00
10466;BME280;5280;42.600;23.556;2023-12-04T06:19:52;94083.91;;;-1.31;100.00
10466;BME280;5280;42.600;23.556;2023-12-04T06:22:22;94084.75;;;-1.30;100.00
10466;BME280;5280;42.600;23.556;2023-12-04T06:24:51;94082.97;;;-1.28;100.00
10466;BME280;5280;42.600;23.556;2023-12-04T06:27:19;94086.53;;;-1.32;100.00
10466;BME280;5280;42.600;23.556;2023-12-04T06:29:46;94090.88;;;-1.34;100.00
10466;BME280;5280;42.600;23.556;2023-12-04T06:32:14;94027.72;;;-1.67;100.00
10466;BME280;5280;42.600;23.556;2023-12-04T06:34:42;93982.63;;;-1.97;100.00
10466;BME280;5280;42.600;23.556;2023-12-04T06:37:10;94014.78;;;-1.68;100.00
10466;BME280;5280;42.600;23.556;2023-12-04T06:39:38;94084.59;;;-1.24;100.00
10466;BME280;5280;42.600;23.556;2023-12-04T06:42:08;94023.19;;;-1.57;100.00
10466;BME280;5280;42.600;23.556;2023-12-04T06:44:36;94092.97;;;-1.13;100.00
10466;BME280;5280;42.600;23.556;2023-12-04T06:47:03;94091.34;;;-1.17;100.00
10466;BME280;5280;42.600;23.556;2023-12-04T06:49:32;94095.56;;;-1.13;100.00
10466;BME280;5280;42.600;23.556;2023-12-04T06:52:00;94101.66;;;-1.14;100.00
10466;BME280;5280;42.600;23.556;2023-12-04T06:54:27;94097.25;;;-1.10;100.00
10466;BME280;5280;42.600;23.556;2023-12-04T06:56:54;94094.94;;;-1.22;100.00
10466;BME280;5280;42.600;23.556;2023-12-04T06:59:23;94111.78;;;-1.03;100.00
10466;BME280;5280;42.600;23.556;2023-12-04T07:01:50;94111.75;;;-1.02;100.00
10466;BME280;5280;42.600;23.556;2023-12-04T07:04:17;94114.44;;;-1.06;100.00
10466;BME280;5280;42.600;23.556;2023-12-04T07:06:46;94098.16;;;-1.13;100.00
10466;BME280;5280;42.600;23.556;2023-12-04T07:09:14;94014.75;;;-1.65;100.00
10466;BME280;5280;42.600;23.556;2023-12-04T07:11:42;94118.56;;;-0.98;100.00
10466;BME280;5280;42.600;23.556;2023-12-04T07:14:09;94128.03;;;-0.95;100.00
10466;BME280;5280;42.600;23.556;2023-12-04T07:16:41;94129.69;;;-0.93;100.00
10466;BME280;5280;42.600;23.556;2023-12-04T07:19:09;94128.72;;;-0.89;100.00
10466;BME280;5280;42.600;23.556;2023-12-04T07:21:36;94104.72;;;-0.97;100.00
10466;BME280;5280;42.600;23.556;2023-12-04T07:24:04;94132.91;;;-0.83;100.00
10466;BME280;5280;42.600;23.556;2023-12-04T07:26:33;94123.22;;;-0.75;100.00
10466;BME280;5280;42.600;23.556;2023-12-04T07:29:00;94122.34;;;-0.75;100.00
10466;BME280;5280;42.600;23.556;2023-12-04T07:31:27;94124.88;;;-0.74;100.00
10466;BME280;5280;42.600;23.556;2023-12-04T07:33:55;94103.63;;;-0.88;100.00
10466;BME280;5280;42.600;23.556;2023-12-04T07:36:22;94137.75;;;-0.69;100.00
10466;BME280;5280;42.600;23.556;2023-12-04T07:38:50;94128.56;;;-0.82;100.00
10466;BME280;5280;42.600;23.556;2023-12-04T07:41:19;94067.38;;;-1.25;100.00
10466;BME280;5280;42.600;23.556;2023-12-04T07:43:46;94111.59;;;-0.96;100.00
10466;BME280;5280;42.600;23.556;2023-12-04T07:46:13;94109.06;;;-0.99;100.00
10466;BME280;5280;42.600;23.556;2023-12-04T07:48:40;94132.28;;;-0.93;100.00
10466;BME280;5280;42.600;23.556;2023-12-04T07:51:09;94116.63;;;-0.90;100.00
10466;BME280;5280;42.600;23.556;2023-12-04T07:53:36;94129.41;;;-0.80;100.00
10466;BME280;5280;42.600;23.556;2023-12-04T07:56:04;94113.88;;;-0.83;100.00
10466;BME280;5280;42.600;23.556;2023-12-04T07:58:31;94128.16;;;-0.66;100.00
10466;BME280;5280;42.600;23.556;2023-12-04T08:00:58;94134.91;;;-0.59;100.00
10466;BME280;5280;42.600;23.556;2023-12-04T08:03:26;94109.81;;;-0.60;100.00
10466;BME280;5280;42.600;23.556;2023-12-04T08:05:53;94115.03;;;-0.60;100.00
10466;BME280;5280;42.600;23.556;2023-12-04T08:08:24;94131.13;;;-0.46;100.00
10466;BME280;5280;42.600;23.556;2023-12-04T08:10:51;94133.63;;;-0.43;100.00
10466;BME280;5280;42.600;23.556;2023-12-04T08:13:18;94128.44;;;-0.43;100.00
10466;BME280;5280;42.600;23.556;2023-12-04T08:15:48;94146.34;;;-0.32;100.00
10466;BME280;5280;42.600;23.556;2023-12-04T08:18:15;94124.25;;;-0.48;100.00
10466;BME280;5280;42.600;23.556;2023-12-04T08:20:43;94143.50;;;-0.23;100.00
10466;BME280;5280;42.600;23.556;2023-12-04T08:23:09;94144.53;;;-0.30;100.00
10466;BME280;5280;42.600;23.556;2023-12-04T08:25:38;94143.59;;;-0.26;100.00
10466;BME280;5280;42.600;23.556;2023-12-04T08:28:05;94132.38;;;-0.28;100.00
10466;BME280;5280;42.600;23.556;2023-12-04T08:30:34;94142.78;;;-0.28;100.00
10466;BME280;5280;42.600;23.556;2023-12-04T08:33:01;94134.16;;;-0.30;100.00
10466;BME280;5280;42.600;23.556;2023-12-04T08:35:28;94146.84;;;-0.19;100.00
10466;BME280;5280;42.600;23.556;2023-12-04T08:37:55;94143.41;;;-0.20;100.00
10466;BME280;5280;42.600;23.556;2023-12-04T08:40:22;94139.13;;;-0.21;100.00
10466;BME280;5280;42.600;23.556;2023-12-04T08:42:53;94127.09;;;-0.25;100.00
10466;BME280;5280;42.600;23.556;2023-12-04T08:45:20;94144.19;;;-0.16;100.00
10466;BME280;5280;42.600;23.556;2023-12-04T08:47:47;94160.13;;;0.04;100.00
10466;BME280;5280;42.600;23.556;2023-12-04T08:50:17;94160.88;;;0.08;100.00
10466;BME280;5280;42.600;23.556;2023-12-04T08:52:44;94166.09;;;0.06;100.00
10466;BME280;5280;42.600;23.556;2023-12-04T08:55:14;94161.50;;;0.16;100.00
10466;BME280;5280;42.600;23.556;2023-12-04T08:57:43;94158.06;;;0.15;100.00
10466;BME280;5280;42.600;23.556;2023-12-04T09:00:13;94156.97;;;0.24;100.00
10466;BME280;5280;42.600;23.556;2023-12-04T09:02:40;94126.94;;;0.14;100.00
10466;BME280;5280;42.600;23.556;2023-12-04T09:05:08;94128.28;;;0.27;100.00
10466;BME280;5280;42.600;23.556;2023-12-04T09:07:35;94149.25;;;0.50;100.00
10466;BME280;5280;42.600;23.556;2023-12-04T09:10:02;94130.44;;;0.42;100.00
10466;BME280;5280;42.600;23.556;2023-12-04T09:12:30;94147.38;;;0.55;100.00
10466;BME280;5280;42.600;23.556;2023-12-04T09:14:58;94108.97;;;0.35;100.00
10466;BME280;5280;42.600;23.556;2023-12-04T09:17:28;94119.78;;;0.51;100.00
10466;BME280;5280;42.600;23.556;2023-12-04T09:19:55;94114.44;;;0.56;100.00
10466;BME280;5280;42.600;23.556;2023-12-04T09:22:22;94127.66;;;0.77;100.00
10466;BME280;5280;42.600;23.556;2023-12-04T09:24:49;94128.38;;;0.82;100.00
10466;BME280;5280;42.600;23.556;2023-12-04T09:27:16;94126.16;;;0.98;100.00
10466;BME280;5280;42.600;23.556;2023-12-04T09:29:43;94127.16;;;0.94;100.00
10466;BME280;5280;42.600;23.556;2023-12-04T09:32:10;94118.34;;;0.98;100.00
10466;BME280;5280;42.600;23.556;2023-12-04T09:34:39;94115.47;;;1.07;100.00
10466;BME280;5280;42.600;23.556;2023-12-04T09:37:05;94105.09;;;1.06;100.00
10466;BME280;5280;42.600;23.556;2023-12-04T09:39:33;94102.84;;;1.21;100.00
10466;BME280;5280;42.600;23.556;2023-12-04T09:42:01;94110.53;;;1.26;100.00
10466;BME280;5280;42.600;23.556;2023-12-04T09:44:28;94104.38;;;1.28;100.00
10466;BME280;5280;42.600;23.556;2023-12-04T09:46:57;94088.94;;;1.22;100.00
10466;BME280;5280;42.600;23.556;2023-12-04T09:49:25;94105.00;;;1.35;100.00
10466;BME280;5280;42.600;23.556;2023-12-04T09:51:57;94106.47;;;1.44;100.00
10466;BME280;5280;42.600;23.556;2023-12-04T09:54:24;94109.94;;;1.44;100.00
10466;BME280;5280;42.600;23.556;2023-12-04T09:56:52;94105.56;;;1.45;100.00
10466;BME280;5280;42.600;23.556;2023-12-04T09:59:24;94102.81;;;1.49;100.00
10466;BME280;5280;42.600;23.556;2023-12-04T10:01:51;94104.81;;;1.41;100.00
10466;BME280;5280;42.600;23.556;2023-12-04T10:04:18;94102.81;;;1.49;100.00
10466;BME280;5280;42.600;23.556;2023-12-04T10:06:48;94092.09;;;1.58;100.00
10466;BME280;5280;42.600;23.556;2023-12-04T10:09:18;94083.22;;;1.64;100.00
10466;BME280;5280;42.600;23.556;2023-12-04T10:11:45;94083.06;;;1.68;100.00
10466;BME280;5280;42.600;23.556;2023-12-04T10:14:14;94070.94;;;1.67;100.00
10466;BME280;5280;42.600;23.556;2023-12-04T10:16:42;94064.56;;;1.76;100.00
10466;BME280;5280;42.600;23.556;2023-12-04T10:19:20;94090.19;;;1.88;100.00
10466;BME280;5280;42.600;23.556;2023-12-04T10:21:50;94074.13;;;1.76;100.00
10466;BME280;5280;42.600;23.556;2023-12-04T10:24:29;94080.50;;;1.92;100.00
10466;BME280;5280;42.600;23.556;2023-12-04T10:26:57;94071.78;;;1.93;100.00
10466;BME280;5280;42.600;23.556;2023-12-04T10:29:27;94072.69;;;1.92;100.00
10466;BME280;5280;42.600;23.556;2023-12-04T10:31:55;94079.44;;;1.72;100.00
10466;BME280;5280;42.600;23.556;2023-12-04T10:34:25;94074.81;;;1.81;100.00
10466;BME280;5280;42.600;23.556;2023-12-04T10:36:58;94073.06;;;1.81;100.00
10466;BME280;5280;42.600;23.556;2023-12-04T10:39:25;94067.47;;;1.92;100.00
10466;BME280;5280;42.600;23.556;2023-12-04T10:42:01;94069.91;;;1.96;100.00
10466;BME280;5280;42.600;23.556;2023-12-04T10:44:30;94067.94;;;2.03;100.00
10466;BME280;5280;42.600;23.556;2023-12-04T10:47:01;94068.72;;;2.05;100.00
10466;BME280;5280;42.600;23.556;2023-12-04T10:49:29;94057.41;;;2.06;100.00
10466;BME280;5280;42.600;23.556;2023-12-04T10:51:57;94050.78;;;1.97;100.00
10466;BME280;5280;42.600;23.556;2023-12-04T10:54:25;93968.56;;;1.41;100.00
10466;BME280;5280;42.600;23.556;2023-12-04T10:56:56;94049.59;;;1.81;100.00
10466;BME280;5280;42.600;23.556;2023-12-04T10:59:28;94063.06;;;1.94;100.00
10466;BME280;5280;42.600;23.556;2023-12-04T11:02:01;94055.50;;;1.86;100.00
10466;BME280;5280;42.600;23.556;2023-12-04T11:04:31;94049.56;;;1.83;100.00
10466;BME280;5280;42.600;23.556;2023-12-04T11:06:59;94046.06;;;1.84;100.00
10466;BME280;5280;42.600;23.556;2023-12-04T11:09:29;94048.66;;;1.84;100.00
10466;BME280;5280;42.600;23.556;2023-12-04T11:12:02;94050.22;;;1.89;100.00
10466;BME280;5280;42.600;23.556;2023-12-04T11:14:37;94045.94;;;1.87;100.00
10466;BME280;5280;42.600;23.556;2023-12-04T11:17:08;94020.25;;;1.76;100.00
10466;BME280;5280;42.600;23.556;2023-12-04T11:19:45;94033.47;;;1.95;100.00
10466;BME280;5280;42.600;23.556;2023-12-04T11:22:14;94042.25;;;1.92;100.00
10466;BME280;5280;42.600;23.556;2023-12-04T11:24:46;94033.44;;;1.96;100.00
10466;BME280;5280;42.600;23.556;2023-12-04T11:27:14;94037.44;;;2.05;100.00
10466;BME280;5280;42.600;23.556;2023-12-04T11:29:43;94035.53;;;2.10;100.00
10466;BME280;5280;42.600;23.556;2023-12-04T11:32:14;94039.06;;;2.09;100.00
10466;BME280;5280;42.600;23.556;2023-12-04T11:34:54;94034.63;;;2.11;100.00
10466;BME280;5280;42.600;23.556;2023-12-04T11:37:23;94029.59;;;2.06;100.00
10466;BME280;5280;42.600;23.556;2023-12-04T11:39:50;94024.19;;;2.11;100.00
10466;BME280;5280;42.600;23.556;2023-12-04T11:45:05;94017.34;;;2.08;100.00
10466;BME280;5280;42.600;23.556;2023-12-04T11:47:51;93999.16;;;2.07;100.00
10466;BME280;5280;42.600;23.556;2023-12-04T11:50:19;94012.53;;;2.21;100.00
10466;BME280;5280;42.600;23.556;2023-12-04T11:52:49;94011.50;;;2.25;100.00
10466;BME280;5280;42.600;23.556;2023-12-04T11:55:17;94008.78;;;2.28;100.00
10466;BME280;5280;42.600;23.556;2023-12-04T11:57:44;94009.56;;;2.30;100.00
10466;BME280;5280;42.600;23.556;2023-12-04T12:00:19;93983.06;;;2.19;100.00
10466;BME280;5280;42.600;23.556;2023-12-04T12:03:00;94005.81;;;2.37;100.00
10466;BME280;5280;42.600;23.556;2023-12-04T12:05:30;93999.72;;;2.38;100.00
10466;BME280;5280;42.600;23.556;2023-12-04T12:08:00;93999.88;;;2.34;100.00
10466;BME280;5280;42.600;23.556;2023-12-04T12:10:28;93962.03;;;2.24;100.00
10466;BME280;5280;42.600;23.556;2023-12-04T12:14:47;93988.69;;;2.30;100.00
10466;BME280;5280;42.600;23.556;2023-12-04T12:17:15;93995.66;;;2.30;100.00
10466;BME280;5280;42.600;23.556;2023-12-04T12:19:42;93983.47;;;2.08;100.00
10466;BME280;5280;42.600;23.556;2023-12-04T12:22:09;93987.34;;;2.20;100.00
10466;BME280;5280;42.600;23.556;2023-12-04T12:24:39;93986.41;;;2.23;100.00
10466;BME280;5280;42.600;23.556;2023-12-04T12:27:06;93974.50;;;2.15;100.00
10466;BME280;5280;42.600;23.556;2023-12-04T12:29:33;93979.59;;;2.19;100.00
10466;BME280;5280;42.600;23.556;2023-12-04T12:32:04;93975.00;;;2.25;100.00
10466;BME280;5280;42.600;23.556;2023-12-04T12:34:32;93972.16;;;2.31;100.00
10466;BME280;5280;42.600;23.556;2023-12-04T12:37:01;93957.66;;;2.24;100.00
10466;BME280;5280;42.600;23.556;2023-12-04T12:39:31;93964.28;;;2.33;100.00
10466;BME280;5280;42.600;23.556;2023-12-04T12:42:01;93970.22;;;2.36;100.00
10466;BME280;5280;42.600;23.556;2023-12-04T12:44:37;93966.53;;;2.42;100.00
10466;BME280;5280;42.600;23.556;2023-12-04T12:47:07;93958.16;;;2.34;100.00
10466;BME280;5280;42.600;23.556;2023-12-04T12:49:34;93941.16;;;2.24;100.00
10466;BME280;5280;42.600;23.556;2023-12-04T12:52:01;93972.69;;;2.39;100.00
10466;BME280;5280;42.600;23.556;2023-12-04T12:54:28;93961.59;;;2.34;100.00
10466;BME280;5280;42.600;23.556;2023-12-04T12:56:58;93965.91;;;2.35;100.00
10466;BME280;5280;42.600;23.556;2023-12-04T12:59:25;93959.16;;;2.30;100.00
10466;BME280;5280;42.600;23.556;2023-12-04T13:01:53;93953.09;;;2.29;100.00